createdAt,value
2019-03-23T00:02:16.024Z,42.43
2019-03-23T00:04:46.014Z,45.07
2019-03-23T00:07:16.250Z,49.30
2019-03-23T00:09:46.201Z,52.23
2019-03-23T00:12:16.291Z,51.70
2019-03-23T00:14:46.770Z,52.33
2019-03-23T00:17:17.473Z,57.10
2019-03-23T00:19:47.920Z,52.10
2019-03-23T00:22:18.199Z,53.57
2019-03-23T00:24:48.202Z,53.23
2019-03-23T00:27:18.173Z,51.13
2019-03-23T00:29:48.632Z,51.37
2019-03-23T00:32:18.612Z,51.80
2019-03-23T00:34:49.017Z,53.23
2019-03-23T00:37:19.062Z,51.10
2019-03-23T00:39:49.144Z,53.50
2019-03-23T00:42:19.278Z,60.00
2019-03-23T00:44:49.629Z,56.83
2019-03-23T00:47:19.645Z,57.90
2019-03-23T00:49:49.639Z,57.80
2019-03-23T00:52:19.663Z,60.33
2019-03-23T00:54:50.057Z,59.70
2019-03-23T00:57:20.110Z,62.63
2019-03-23T00:59:50.061Z,59.17
2019-03-23T01:02:20.095Z,59.70
2019-03-23T01:04:50.075Z,62.77
2019-03-23T01:07:20.125Z,65.23
2019-03-23T01:09:50.502Z,61.17
2019-03-23T01:12:20.886Z,60.53
2019-03-23T01:14:50.890Z,59.30
2019-03-23T01:17:20.866Z,54.80
2019-03-23T01:19:50.834Z,54.10
2019-03-23T01:22:21.058Z,56.87
2019-03-23T01:24:51.052Z,60.87
2019-03-23T01:27:21.069Z,62.30
2019-03-23T01:29:51.468Z,60.07
2019-03-23T01:32:21.417Z,62.77
2019-03-23T01:34:51.317Z,65.00
2019-03-23T01:37:22.182Z,67.80
2019-03-23T01:39:52.203Z,69.13
2019-03-23T01:42:22.188Z,65.77
2019-03-23T01:44:52.954Z,66.97
2019-03-23T01:47:23.110Z,61.87
2019-03-23T01:49:53.194Z,65.97
2019-03-23T01:52:23.176Z,63.20
2019-03-23T01:54:53.487Z,59.00
2019-03-23T01:57:23.478Z,55.30
2019-03-23T01:59:53.417Z,59.73
2019-03-23T02:02:23.331Z,60.27
2019-03-23T02:04:53.692Z,57.00
2019-03-23T02:07:23.668Z,58.53
2019-03-23T02:09:54.087Z,54.37
2019-03-23T02:12:24.401Z,59.13
2019-03-23T02:14:54.395Z,58.57
2019-03-23T02:17:24.374Z,54.80
2019-03-23T02:19:54.419Z,56.73
2019-03-23T02:22:24.428Z,57.90
2019-03-23T02:24:54.393Z,55.87
2019-03-23T02:27:24.261Z,51.90
2019-03-23T02:29:54.585Z,54.70
2019-03-23T02:32:24.485Z,52.53
2019-03-23T02:34:54.902Z,50.07
2019-03-23T02:37:28.039Z,49.97
2019-03-23T02:39:56.528Z,50.10
2019-03-23T02:42:26.794Z,51.53
2019-03-23T02:44:56.786Z,52.97
2019-03-23T02:47:26.823Z,52.63
2019-03-23T02:49:56.771Z,51.43
2019-03-23T02:52:27.186Z,50.33
2019-03-23T02:54:57.189Z,51.40
2019-03-23T02:57:27.186Z,52.00
2019-03-23T02:59:57.190Z,52.53
2019-03-23T03:02:27.208Z,52.73
2019-03-23T03:04:57.181Z,50.80
2019-03-23T03:07:40.777Z,51.67
2019-03-23T03:09:58.825Z,51.93
2019-03-23T03:12:28.832Z,52.00
2019-03-23T03:14:58.824Z,50.50
2019-03-23T03:17:29.273Z,50.43
2019-03-23T03:19:59.304Z,50.10
2019-03-23T03:22:29.293Z,52.83
2019-03-23T03:24:59.649Z,52.50
2019-03-23T03:27:29.630Z,52.53
2019-03-23T03:29:59.600Z,47.10
2019-03-23T03:32:29.767Z,51.27
2019-03-23T03:34:59.794Z,51.40
2019-03-23T03:37:29.838Z,50.70
2019-03-23T03:39:59.892Z,52.83
2019-03-23T03:42:29.867Z,52.57
2019-03-23T03:45:00.032Z,49.80
2019-03-23T03:47:29.975Z,48.80
2019-03-23T03:49:59.982Z,48.93
2019-03-23T03:52:30.049Z,48.60
2019-03-23T03:55:00.789Z,49.60
2019-03-23T03:57:30.832Z,48.07
2019-03-23T04:00:00.886Z,48.80
2019-03-23T04:02:30.876Z,47.43
2019-03-23T04:05:00.934Z,48.53
2019-03-23T04:07:30.903Z,49.77
2019-03-23T04:10:00.903Z,48.13
2019-03-23T04:12:30.914Z,48.07
2019-03-23T04:15:01.274Z,47.57
2019-03-23T04:17:31.591Z,51.13
2019-03-23T04:20:01.569Z,48.90
2019-03-23T04:22:31.556Z,49.30
2019-03-23T04:25:01.974Z,45.30
2019-03-23T04:27:31.994Z,50.40
2019-03-23T04:30:01.997Z,48.10
2019-03-23T04:32:32.044Z,44.60
2019-03-23T04:35:02.426Z,50.20
2019-03-23T04:37:32.452Z,49.10
2019-03-23T04:40:02.546Z,46.30
2019-03-23T04:42:32.629Z,45.57
2019-03-23T04:45:02.540Z,45.20
2019-03-23T04:47:32.526Z,45.23
2019-03-23T04:50:02.474Z,45.53
2019-03-23T04:52:32.450Z,46.00
2019-03-23T04:55:02.937Z,48.60
2019-03-23T04:57:32.959Z,50.73
2019-03-23T05:00:02.990Z,48.43
2019-03-23T05:02:32.965Z,46.40
2019-03-23T05:05:03.010Z,49.40
2019-03-23T05:07:33.079Z,47.07
2019-03-23T05:10:03.656Z,47.73
2019-03-23T05:12:33.678Z,46.47
2019-03-23T05:15:03.991Z,48.50
2019-03-23T05:17:33.974Z,50.83
2019-03-23T05:20:04.305Z,48.13
2019-03-23T05:22:34.461Z,50.10
2019-03-23T05:25:04.714Z,48.17
2019-03-23T05:27:35.410Z,47.17
2019-03-23T05:30:06.901Z,47.83
2019-03-23T05:32:36.937Z,46.77
2019-03-23T05:35:07.290Z,46.00
2019-03-23T05:37:37.629Z,48.97
2019-03-23T05:40:08.035Z,50.27
2019-03-23T05:42:38.281Z,45.47
2019-03-23T05:45:08.545Z,46.67
2019-03-23T05:47:39.017Z,48.53
2019-03-23T05:50:10.070Z,48.47
2019-03-23T05:52:41.228Z,48.90
2019-03-23T05:55:11.290Z,50.40
2019-03-23T05:57:41.520Z,48.80
2019-03-23T06:00:14.381Z,51.00
2019-03-23T06:02:44.326Z,48.33
2019-03-23T06:05:14.393Z,53.43
2019-03-23T06:07:44.418Z,53.67
2019-03-23T06:10:14.411Z,53.57
2019-03-23T06:12:44.525Z,51.10
2019-03-23T06:15:14.983Z,52.07
2019-03-23T06:17:45.363Z,52.00
2019-03-23T06:20:15.827Z,57.03
2019-03-23T06:22:45.849Z,52.73
2019-03-23T06:25:16.248Z,54.40
2019-03-23T06:27:47.007Z,52.73
2019-03-23T06:30:16.990Z,51.27
2019-03-23T06:32:46.965Z,50.47
2019-03-23T06:35:16.973Z,48.20
2019-03-23T06:37:47.058Z,51.17
2019-03-23T06:40:16.974Z,49.57
2019-03-23T06:42:46.930Z,51.10
2019-03-23T06:45:17.215Z,54.20
2019-03-23T06:47:47.542Z,49.27
2019-03-23T06:50:17.497Z,48.63
2019-03-23T06:52:47.487Z,48.87
2019-03-23T06:55:18.389Z,50.10
2019-03-23T06:57:48.771Z,50.43
2019-03-23T07:00:18.842Z,49.03
2019-03-23T07:02:49.454Z,50.40
2019-03-23T07:05:19.401Z,49.73
2019-03-23T07:07:49.394Z,48.17
2019-03-23T07:10:19.677Z,49.40
2019-03-23T07:12:50.485Z,47.33
2019-03-23T07:15:20.684Z,48.37
2019-03-23T07:17:50.701Z,47.13
2019-03-23T07:20:21.090Z,53.27
2019-03-23T07:22:51.351Z,50.10
2019-03-23T07:25:21.786Z,48.83
2019-03-23T07:27:51.915Z,46.70
2019-03-23T07:30:21.934Z,48.33
2019-03-23T07:32:51.922Z,49.33
2019-03-23T07:35:21.933Z,45.50
2019-03-23T07:37:51.906Z,48.10
2019-03-23T07:40:21.958Z,48.30
2019-03-23T07:42:51.948Z,44.43
2019-03-23T07:45:22.012Z,45.10
2019-03-23T07:47:52.034Z,44.70
2019-03-23T07:50:22.026Z,46.30
2019-03-23T07:52:52.025Z,42.30
2019-03-23T07:55:21.981Z,46.90
2019-03-23T07:57:52.018Z,44.40
2019-03-23T08:00:22.582Z,44.90
2019-03-23T08:02:52.896Z,42.13
2019-03-23T08:05:23.277Z,44.63
2019-03-23T08:07:53.291Z,43.73
2019-03-23T08:10:33.377Z,43.60
2019-03-23T08:13:03.528Z,43.13
2019-03-23T08:15:33.566Z,46.80
2019-03-23T08:18:03.582Z,42.63
2019-03-23T08:20:33.594Z,43.50
2019-03-23T08:23:03.591Z,43.80
2019-03-23T08:25:33.938Z,44.90
2019-03-23T08:28:04.013Z,42.20
2019-03-23T08:30:33.953Z,44.40
2019-03-23T08:33:04.029Z,43.63
2019-03-23T08:35:34.399Z,43.20
2019-03-23T08:38:04.420Z,41.67
2019-03-23T08:40:35.818Z,42.20
2019-03-23T08:43:06.120Z,41.43
2019-03-23T08:45:36.155Z,41.73
2019-03-23T08:48:06.220Z,41.47
2019-03-23T08:50:36.884Z,43.17
2019-03-23T08:53:07.471Z,47.70
2019-03-23T08:55:37.419Z,43.30
2019-03-23T08:58:07.400Z,41.30
2019-03-23T09:00:37.389Z,42.27
2019-03-23T09:03:07.376Z,41.70
2019-03-23T09:05:37.773Z,43.90
2019-03-23T09:08:08.184Z,39.77
2019-03-23T09:10:38.327Z,40.47
2019-03-23T09:13:08.742Z,42.90
2019-03-23T09:15:38.739Z,43.63
2019-03-23T09:18:09.141Z,41.60
2019-03-23T09:20:39.194Z,43.47
2019-03-23T09:23:09.224Z,43.73
2019-03-23T09:25:39.378Z,44.37
2019-03-23T09:28:09.536Z,41.70
2019-03-23T09:30:39.550Z,42.80
2019-03-23T09:33:09.546Z,42.37
2019-03-23T09:35:40.034Z,43.00
2019-03-23T09:38:10.542Z,42.10
2019-03-23T09:40:40.536Z,42.37
2019-03-23T09:43:10.559Z,43.47
2019-03-23T09:45:40.530Z,41.23
2019-03-23T09:48:10.552Z,42.50
2019-03-23T09:50:41.007Z,40.80
2019-03-23T09:53:11.013Z,42.67
2019-03-23T09:55:41.032Z,41.33
2019-03-23T09:58:10.959Z,40.33
2019-03-23T10:00:41.119Z,42.67
2019-03-23T10:03:11.096Z,44.20
2019-03-23T10:05:41.123Z,42.23
2019-03-23T10:08:12.638Z,44.57
2019-03-23T10:10:43.030Z,42.00
2019-03-23T10:13:13.371Z,43.70
2019-03-23T10:15:43.412Z,42.33
2019-03-23T10:18:13.880Z,41.23
2019-03-23T10:20:44.160Z,42.00
2019-03-23T10:23:14.238Z,43.30
2019-03-23T10:25:44.639Z,38.77
2019-03-23T10:28:15.190Z,39.50
2019-03-23T10:30:45.294Z,41.67
2019-03-23T10:33:15.345Z,41.00
2019-03-23T10:35:45.264Z,42.17
2019-03-23T10:38:15.321Z,38.33
2019-03-23T10:40:45.322Z,41.07
2019-03-23T10:43:15.758Z,38.13
2019-03-23T10:45:45.742Z,39.37
2019-03-23T10:48:15.746Z,38.87
2019-03-23T10:50:45.736Z,39.23
2019-03-23T10:53:22.986Z,37.60
2019-03-23T10:55:48.337Z,39.90
2019-03-23T10:58:18.369Z,41.07
2019-03-23T11:00:48.387Z,39.67
2019-03-23T11:03:18.459Z,42.47
2019-03-23T11:05:49.009Z,39.30
2019-03-23T11:08:19.057Z,40.37
2019-03-23T11:10:49.019Z,39.87
2019-03-23T11:13:19.161Z,39.60
2019-03-23T11:15:49.168Z,40.20
2019-03-23T11:18:19.225Z,41.63
2019-03-23T11:20:49.246Z,40.60
2019-03-23T11:23:19.243Z,40.67
2019-03-23T11:25:49.301Z,39.80
2019-03-23T11:28:19.735Z,41.10
2019-03-23T11:30:49.817Z,42.07
2019-03-23T11:33:20.050Z,41.30
2019-03-23T11:35:57.455Z,41.37
2019-03-23T11:38:21.693Z,40.70
2019-03-23T11:40:55.102Z,41.70
2019-03-23T11:43:23.895Z,40.80
2019-03-23T11:45:53.866Z,38.37
2019-03-23T11:48:23.854Z,40.90
2019-03-23T11:50:53.926Z,39.03
2019-03-23T11:53:23.869Z,41.87
2019-03-23T11:55:53.822Z,39.30
2019-03-23T11:58:23.843Z,39.10
2019-03-23T12:00:53.806Z,37.17
2019-03-23T12:03:23.773Z,39.50
2019-03-23T12:05:54.232Z,38.40
2019-03-23T12:08:24.625Z,39.83
2019-03-23T12:11:02.539Z,37.77
2019-03-23T12:13:26.430Z,40.70
2019-03-23T12:15:57.417Z,39.03
2019-03-23T12:18:27.766Z,38.80
2019-03-23T12:20:57.772Z,39.27
2019-03-23T12:23:29.095Z,39.50
2019-03-23T12:25:59.121Z,39.37
2019-03-23T12:28:29.161Z,38.13
2019-03-23T12:30:59.591Z,38.30
2019-03-23T12:33:29.742Z,38.70
2019-03-23T12:36:00.165Z,39.73
2019-03-23T12:38:30.112Z,40.57
2019-03-23T12:41:11.195Z,38.70
2019-03-23T12:43:32.174Z,38.73
2019-03-23T12:46:02.173Z,37.33
2019-03-23T12:48:32.172Z,39.30
2019-03-23T12:51:02.187Z,39.37
2019-03-23T12:53:32.538Z,38.83
2019-03-23T12:56:02.573Z,38.40
2019-03-23T12:58:32.549Z,37.60
2019-03-23T13:01:02.460Z,38.27
2019-03-23T13:03:32.474Z,34.07
2019-03-23T13:06:02.472Z,35.00
2019-03-23T13:08:32.578Z,37.00
2019-03-23T13:11:03.058Z,35.50
2019-03-23T13:13:33.009Z,37.00
2019-03-23T13:16:03.077Z,38.07
2019-03-23T13:18:33.391Z,37.70
2019-03-23T13:21:03.405Z,35.60
2019-03-23T13:23:33.354Z,38.17
2019-03-23T13:26:03.305Z,38.37
2019-03-23T13:28:33.742Z,37.60
2019-03-23T13:31:03.718Z,36.83
2019-03-23T13:33:33.739Z,37.30
2019-03-23T13:36:03.825Z,37.67
2019-03-23T13:38:34.295Z,38.33
2019-03-23T13:41:05.314Z,36.80
2019-03-23T13:43:35.373Z,35.70
2019-03-23T13:46:05.571Z,36.97
2019-03-23T13:48:35.649Z,38.00
2019-03-23T13:51:06.060Z,35.93
2019-03-23T13:53:39.223Z,37.60
2019-03-23T13:56:09.235Z,36.37
2019-03-23T13:58:39.291Z,36.37
2019-03-23T14:01:09.270Z,36.97
2019-03-23T14:03:39.365Z,35.73
2019-03-23T14:06:09.754Z,36.90
2019-03-23T14:08:39.763Z,37.07
2019-03-23T14:11:10.078Z,36.03
2019-03-23T14:13:39.984Z,39.53
2019-03-23T14:16:09.997Z,38.43
2019-03-23T14:18:39.997Z,36.80
2019-03-23T14:21:10.030Z,40.50
2019-03-23T14:23:40.009Z,38.17
2019-03-23T14:26:10.079Z,39.57
2019-03-23T14:28:40.097Z,36.73
2019-03-23T14:31:10.146Z,37.20
2019-03-23T14:33:40.318Z,37.03
2019-03-23T14:36:10.731Z,38.63
2019-03-23T14:38:40.743Z,39.47
2019-03-23T14:41:10.762Z,39.83
2019-03-23T14:43:41.211Z,41.17
2019-03-23T14:46:11.260Z,41.70
2019-03-23T14:48:41.294Z,40.90
2019-03-23T14:51:11.551Z,42.47
2019-03-23T14:53:41.575Z,46.17
2019-03-23T14:56:11.922Z,46.37
2019-03-23T14:58:41.913Z,44.27
2019-03-23T15:01:11.921Z,40.50
2019-03-23T15:03:41.912Z,42.70
2019-03-23T15:06:12.223Z,36.70
2019-03-23T15:08:42.435Z,40.40
2019-03-23T15:11:12.788Z,38.00
2019-03-23T15:13:42.827Z,28.37
2019-03-23T15:16:12.821Z,22.33
2019-03-23T15:18:42.790Z,21.80
2019-03-23T15:21:12.870Z,21.37
2019-03-23T15:23:43.335Z,21.63
2019-03-23T15:26:13.342Z,22.43
2019-03-23T15:28:43.330Z,24.60
2019-03-23T15:31:13.350Z,26.07
2019-03-23T15:33:43.293Z,23.80
2019-03-23T15:36:13.329Z,24.37
2019-03-23T15:38:43.345Z,23.90
2019-03-23T15:41:13.350Z,22.43
2019-03-23T15:43:44.768Z,24.43
2019-03-23T15:46:15.119Z,22.77
2019-03-23T15:48:45.418Z,22.67
2019-03-23T15:51:15.894Z,20.27
2019-03-23T15:53:46.081Z,20.30
2019-03-23T15:56:16.430Z,22.90
2019-03-23T15:58:46.970Z,17.50
2019-03-23T16:01:18.367Z,17.90
2019-03-23T16:03:49.211Z,15.63
2019-03-23T16:06:19.294Z,16.93
2019-03-23T16:08:49.331Z,16.43
2019-03-23T16:11:19.705Z,17.83
2019-03-23T16:13:50.779Z,16.20
2019-03-23T16:16:22.392Z,14.83
2019-03-23T16:18:53.231Z,12.63
2019-03-23T16:21:23.948Z,12.40
2019-03-23T16:23:54.278Z,13.10
2019-03-23T16:26:24.658Z,12.40
2019-03-23T16:28:55.740Z,11.13
2019-03-23T16:31:28.170Z,11.50
2019-03-23T16:33:59.522Z,10.60
2019-03-23T16:36:31.498Z,10.70
2019-03-23T16:39:02.131Z,10.80
2019-03-23T16:41:32.110Z,9.37
2019-03-23T16:44:02.520Z,9.03
2019-03-23T16:46:32.838Z,8.23
2019-03-23T16:49:03.578Z,8.77
2019-03-23T16:51:33.962Z,8.63
2019-03-23T16:54:03.980Z,7.77
2019-03-23T16:56:33.985Z,7.83
2019-03-23T16:59:03.958Z,8.77
2019-03-23T17:01:34.271Z,8.77
2019-03-23T17:04:04.346Z,8.83
2019-03-23T17:06:34.509Z,10.10
2019-03-23T17:09:05.062Z,7.73
2019-03-23T17:11:35.314Z,8.60
2019-03-23T17:14:05.763Z,9.27
2019-03-23T17:16:35.925Z,8.47
2019-03-23T17:19:06.458Z,8.60
2019-03-23T17:21:36.783Z,9.53
2019-03-23T17:24:07.229Z,8.53
2019-03-23T17:26:37.213Z,8.13
2019-03-23T17:29:07.183Z,9.00
2019-03-23T17:31:37.233Z,8.63
2019-03-23T17:34:07.410Z,8.27
2019-03-23T17:36:37.473Z,6.73
2019-03-23T17:39:07.805Z,7.63
2019-03-23T17:41:38.498Z,8.30
2019-03-23T17:44:08.914Z,7.20
2019-03-23T17:46:39.012Z,7.63
2019-03-23T17:49:09.068Z,8.07
2019-03-23T17:51:39.158Z,8.27
2019-03-23T17:54:09.938Z,7.40
2019-03-23T17:56:40.705Z,8.47
2019-03-23T17:59:11.796Z,8.10
2019-03-23T18:01:42.216Z,7.80
2019-03-23T18:04:12.284Z,8.60
2019-03-23T18:06:42.252Z,8.60
2019-03-23T18:09:12.244Z,8.53
2019-03-23T18:11:43.017Z,9.13
2019-03-23T18:14:13.049Z,10.20
2019-03-23T18:16:43.078Z,9.90
2019-03-23T18:19:13.433Z,9.90
2019-03-23T18:21:43.433Z,11.10
2019-03-23T18:24:13.720Z,10.57
2019-03-23T18:26:43.693Z,10.00
2019-03-23T18:29:14.108Z,10.17
2019-03-23T18:31:44.102Z,9.53
2019-03-23T18:34:14.147Z,9.83
2019-03-23T18:36:44.301Z,10.10
2019-03-23T18:39:14.401Z,10.57
2019-03-23T18:41:44.874Z,10.50
2019-03-23T18:44:16.465Z,11.63
2019-03-23T18:46:47.232Z,11.60
2019-03-23T18:49:17.347Z,10.93
2019-03-23T18:51:47.494Z,12.10
2019-03-23T18:54:17.484Z,10.93
2019-03-23T18:56:47.452Z,10.27
2019-03-23T18:59:17.495Z,11.50
2019-03-23T19:01:47.907Z,11.83
2019-03-23T19:04:18.349Z,11.70
2019-03-23T19:06:48.814Z,11.90
2019-03-23T19:09:19.129Z,11.10
2019-03-23T19:11:49.165Z,10.80
2019-03-23T19:14:19.277Z,10.20
2019-03-23T19:16:49.214Z,8.70
2019-03-23T19:19:19.222Z,9.63
2019-03-23T19:21:49.592Z,8.60
2019-03-23T19:24:19.618Z,9.17
2019-03-23T19:26:49.689Z,9.20
2019-03-23T19:29:19.669Z,8.40
2019-03-23T19:31:49.688Z,7.97
2019-03-23T19:34:20.050Z,8.43
2019-03-23T19:36:50.047Z,8.20
2019-03-23T19:39:20.058Z,7.93
2019-03-23T19:41:50.590Z,7.10
2019-03-23T19:44:20.537Z,6.90
2019-03-23T19:46:52.341Z,6.70
2019-03-23T19:49:22.172Z,6.50
2019-03-23T19:51:52.185Z,8.20
2019-03-23T19:54:22.199Z,7.70
2019-03-23T19:56:52.518Z,6.80
2019-03-23T19:59:22.608Z,5.70
2019-03-23T20:01:52.585Z,6.10
2019-03-23T20:04:22.568Z,6.50
2019-03-23T20:06:52.569Z,5.77
2019-03-23T20:09:22.985Z,6.03
2019-03-23T20:11:53.001Z,5.77
2019-03-23T20:14:22.985Z,5.20
2019-03-23T20:16:52.922Z,4.67
2019-03-23T20:19:22.907Z,5.10
2019-03-23T20:21:52.850Z,4.50
2019-03-23T20:24:22.878Z,4.90
2019-03-23T20:26:53.242Z,4.53
2019-03-23T20:29:23.595Z,4.43
2019-03-23T20:31:53.982Z,5.37
2019-03-23T20:34:24.006Z,4.40
2019-03-23T20:36:54.010Z,5.00
2019-03-23T20:39:23.995Z,6.90
2019-03-23T20:41:53.991Z,7.10
2019-03-23T20:44:24.078Z,5.10
2019-03-23T20:46:54.850Z,4.67
2019-03-23T20:49:25.107Z,4.70
2019-03-23T20:51:55.631Z,3.70
2019-03-23T20:54:26.013Z,4.97
2019-03-23T20:56:56.338Z,4.30
2019-03-23T20:59:26.321Z,6.90
2019-03-23T21:01:56.273Z,4.30
2019-03-23T21:04:26.260Z,4.10
2019-03-23T21:06:56.275Z,3.73
2019-03-23T21:09:26.247Z,5.33
2019-03-23T21:11:56.614Z,4.50
2019-03-23T21:14:26.576Z,5.60
2019-03-23T21:16:56.577Z,6.20
2019-03-23T21:19:26.597Z,4.60
2019-03-23T21:21:56.570Z,4.80
2019-03-23T21:24:26.542Z,4.77
2019-03-23T21:26:56.546Z,4.57
2019-03-23T21:29:26.654Z,4.80
2019-03-23T21:31:56.662Z,5.10
2019-03-23T21:34:26.657Z,5.90
2019-03-23T21:36:56.699Z,4.83
2019-03-23T21:39:26.902Z,6.90
2019-03-23T21:41:56.904Z,6.33
2019-03-23T21:44:30.836Z,4.80
2019-03-23T21:46:58.469Z,5.23
2019-03-23T21:49:28.613Z,5.90
2019-03-23T21:51:58.587Z,5.03
2019-03-23T21:54:28.553Z,4.63
2019-03-23T21:56:58.541Z,5.40
2019-03-23T21:59:28.894Z,5.20
2019-03-23T22:01:58.912Z,4.93
2019-03-23T22:04:28.890Z,5.57
2019-03-23T22:06:58.877Z,4.70
2019-03-23T22:09:28.922Z,5.80
2019-03-23T22:11:58.935Z,5.03
2019-03-23T22:14:28.917Z,5.30
2019-03-23T22:16:59.678Z,4.97
2019-03-23T22:19:29.618Z,5.83
2019-03-23T22:21:59.625Z,5.40
2019-03-23T22:24:29.618Z,5.20
2019-03-23T22:26:59.548Z,5.90
2019-03-23T22:29:30.228Z,5.83
2019-03-23T22:32:00.577Z,5.67
2019-03-23T22:34:30.596Z,5.10
2019-03-23T22:37:00.662Z,6.00
2019-03-23T22:39:30.627Z,6.23
2019-03-23T22:42:01.054Z,6.60
2019-03-23T22:44:31.254Z,5.47
2019-03-23T22:47:01.676Z,5.97
2019-03-23T22:49:31.668Z,6.40
2019-03-23T22:52:02.015Z,7.20
2019-03-23T22:54:32.001Z,5.67
2019-03-23T22:57:02.025Z,7.47
2019-03-23T22:59:32.067Z,5.90
2019-03-23T23:02:02.076Z,6.17
2019-03-23T23:04:32.505Z,5.70
2019-03-23T23:07:02.530Z,5.53
2019-03-23T23:09:36.686Z,6.73
2019-03-23T23:12:06.760Z,5.57
2019-03-23T23:14:36.895Z,7.03
2019-03-23T23:17:06.883Z,6.30
2019-03-23T23:19:36.910Z,6.37
2019-03-23T23:22:06.908Z,7.20
2019-03-23T23:24:36.969Z,7.07
2019-03-23T23:27:06.944Z,6.60
2019-03-23T23:29:36.989Z,5.93
2019-03-23T23:32:06.901Z,4.93
2019-03-23T23:34:36.893Z,5.87
2019-03-23T23:37:06.838Z,5.87
2019-03-23T23:39:36.883Z,6.40
2019-03-23T23:42:06.894Z,6.77
2019-03-23T23:44:37.075Z,5.70
2019-03-23T23:47:07.518Z,5.73
2019-03-23T23:49:37.535Z,5.60
2019-03-23T23:52:07.501Z,6.60
2019-03-23T23:54:37.487Z,6.33
2019-03-23T23:57:07.879Z,5.10
2019-03-23T23:59:37.829Z,6.43
